Terminal Aerodrome Forecast
Issued by NWS Knoxville/Tri Cities, TN

Home | Current Version | Previous Version | Text Only | Print | Product List | Glossary On
Versions: 1 2 3 4 5 6 7 8 9 10 11 12 13 14 15 16 17
000
FTUS44 KMRX 242322
TAFTYS
TAF
KTYS 242322Z 2500/2524 26007KT P6SM VCSH SCT020 BKN060
     FM250500 25006KT P6SM SCT007 OVC015
     FM251800 31006KT P6SM BKN025=

USA.gov is the U.S. government's official web portal to all federal, state and local government web resources and services.